sensor_id;sensor_type;location;lat;lon;timestamp;P1;durP1;ratioP1;P2;durP2;ratioP2
76131;SDS011;64877;50.994;13.650;2024-03-08T00:01:06;25.65;;;15.25;;
76131;SDS011;64877;50.994;13.650;2024-03-08T00:03:32;28.70;;;16.63;;
76131;SDS011;64877;50.994;13.650;2024-03-08T00:05:57;29.38;;;16.50;;
76131;SDS011;64877;50.994;13.650;2024-03-08T00:08:23;29.75;;;16.30;;
76131;SDS011;64877;50.994;13.650;2024-03-08T00:10:49;28.35;;;15.20;;
76131;SDS011;64877;50.994;13.650;2024-03-08T00:13:14;33.58;;;16.20;;
76131;SDS011;64877;50.994;13.650;2024-03-08T00:15:39;29.95;;;16.80;;
76131;SDS011;64877;50.994;13.650;2024-03-08T00:18:06;30.52;;;16.27;;
76131;SDS011;64877;50.994;13.650;2024-03-08T00:20:32;29.48;;;16.63;;
76131;SDS011;64877;50.994;13.650;2024-03-08T00:22:57;27.58;;;15.40;;
76131;SDS011;64877;50.994;13.650;2024-03-08T00:25:23;27.88;;;16.02;;
76131;SDS011;64877;50.994;13.650;2024-03-08T00:27:49;30.98;;;15.80;;
76131;SDS011;64877;50.994;13.650;2024-03-08T00:30:21;26.25;;;15.00;;
76131;SDS011;64877;50.994;13.650;2024-03-08T00:32:48;30.13;;;16.13;;
76131;SDS011;64877;50.994;13.650;2024-03-08T00:35:14;31.90;;;17.42;;
76131;SDS011;64877;50.994;13.650;2024-03-08T00:37:39;27.58;;;15.63;;
76131;SDS011;64877;50.994;13.650;2024-03-08T00:40:07;32.65;;;16.48;;
76131;SDS011;64877;50.994;13.650;2024-03-08T00:42:34;31.08;;;17.13;;
76131;SDS011;64877;50.994;13.650;2024-03-08T00:45:00;32.97;;;17.13;;
76131;SDS011;64877;50.994;13.650;2024-03-08T00:47:26;31.63;;;16.73;;
76131;SDS011;64877;50.994;13.650;2024-03-08T00:49:52;31.05;;;17.45;;
76131;SDS011;64877;50.994;13.650;2024-03-08T00:52:18;31.75;;;17.15;;
76131;SDS011;64877;50.994;13.650;2024-03-08T00:54:44;35.15;;;16.98;;
76131;SDS011;64877;50.994;13.650;2024-03-08T00:57:10;32.30;;;16.80;;
76131;SDS011;64877;50.994;13.650;2024-03-08T00:59:37;30.80;;;18.05;;
76131;SDS011;64877;50.994;13.650;2024-03-08T01:02:03;32.35;;;16.13;;
76131;SDS011;64877;50.994;13.650;2024-03-08T01:04:28;31.33;;;16.02;;
76131;SDS011;64877;50.994;13.650;2024-03-08T01:06:54;36.85;;;18.33;;
76131;SDS011;64877;50.994;13.650;2024-03-08T01:09:21;29.27;;;16.55;;
76131;SDS011;64877;50.994;13.650;2024-03-08T01:11:47;29.10;;;16.52;;
76131;SDS011;64877;50.994;13.650;2024-03-08T01:14:13;27.77;;;15.35;;
76131;SDS011;64877;50.994;13.650;2024-03-08T01:16:38;32.85;;;17.60;;
76131;SDS011;64877;50.994;13.650;2024-03-08T01:19:04;31.05;;;17.17;;
76131;SDS011;64877;50.994;13.650;2024-03-08T01:21:29;30.90;;;16.85;;
76131;SDS011;64877;50.994;13.650;2024-03-08T01:23:54;34.28;;;17.77;;
76131;SDS011;64877;50.994;13.650;2024-03-08T01:26:20;33.97;;;17.83;;
76131;SDS011;64877;50.994;13.650;2024-03-08T01:28:45;33.55;;;17.45;;
76131;SDS011;64877;50.994;13.650;2024-03-08T01:31:11;31.00;;;17.50;;
76131;SDS011;64877;50.994;13.650;2024-03-08T01:33:37;36.00;;;18.50;;
76131;SDS011;64877;50.994;13.650;2024-03-08T01:36:02;31.88;;;17.88;;
76131;SDS011;64877;50.994;13.650;2024-03-08T01:38:28;34.20;;;17.27;;
76131;SDS011;64877;50.994;13.650;2024-03-08T01:40:54;31.98;;;15.80;;
76131;SDS011;64877;50.994;13.650;2024-03-08T01:43:20;33.33;;;17.08;;
76131;SDS011;64877;50.994;13.650;2024-03-08T01:45:48;32.75;;;17.95;;
76131;SDS011;64877;50.994;13.650;2024-03-08T01:48:14;31.42;;;16.05;;
76131;SDS011;64877;50.994;13.650;2024-03-08T01:50:40;31.42;;;16.85;;
76131;SDS011;64877;50.994;13.650;2024-03-08T01:53:06;35.50;;;18.55;;
76131;SDS011;64877;50.994;13.650;2024-03-08T01:55:35;36.72;;;17.77;;
76131;SDS011;64877;50.994;13.650;2024-03-08T01:58:02;36.28;;;17.40;;
76131;SDS011;64877;50.994;13.650;2024-03-08T02:00:29;34.92;;;17.15;;
76131;SDS011;64877;50.994;13.650;2024-03-08T02:02:55;30.92;;;16.38;;
76131;SDS011;64877;50.994;13.650;2024-03-08T02:05:22;34.03;;;19.40;;
76131;SDS011;64877;50.994;13.650;2024-03-08T02:07:48;38.78;;;19.08;;
76131;SDS011;64877;50.994;13.650;2024-03-08T02:10:14;35.20;;;18.58;;
76131;SDS011;64877;50.994;13.650;2024-03-08T02:12:40;37.35;;;17.25;;
76131;SDS011;64877;50.994;13.650;2024-03-08T02:15:06;39.03;;;18.55;;
76131;SDS011;64877;50.994;13.650;2024-03-08T02:17:32;31.58;;;16.55;;
76131;SDS011;64877;50.994;13.650;2024-03-08T02:19:59;31.50;;;17.35;;
76131;SDS011;64877;50.994;13.650;2024-03-08T02:22:28;30.70;;;16.00;;
76131;SDS011;64877;50.994;13.650;2024-03-08T02:24:55;33.40;;;17.70;;
76131;SDS011;64877;50.994;13.650;2024-03-08T02:27:24;33.88;;;17.67;;
76131;SDS011;64877;50.994;13.650;2024-03-08T02:29:55;36.05;;;18.00;;
76131;SDS011;64877;50.994;13.650;2024-03-08T02:32:21;35.97;;;19.42;;
76131;SDS011;64877;50.994;13.650;2024-03-08T02:34:47;34.25;;;18.10;;
76131;SDS011;64877;50.994;13.650;2024-03-08T02:37:13;31.48;;;16.63;;
76131;SDS011;64877;50.994;13.650;2024-03-08T02:39:38;38.58;;;18.15;;
76131;SDS011;64877;50.994;13.650;2024-03-08T02:42:04;36.38;;;17.98;;
76131;SDS011;64877;50.994;13.650;2024-03-08T02:44:29;35.13;;;18.00;;
76131;SDS011;64877;50.994;13.650;2024-03-08T02:46:54;30.92;;;16.33;;
76131;SDS011;64877;50.994;13.650;2024-03-08T02:49:20;37.45;;;17.42;;
76131;SDS011;64877;50.994;13.650;2024-03-08T02:51:46;35.00;;;16.67;;
76131;SDS011;64877;50.994;13.650;2024-03-08T02:54:11;34.70;;;17.65;;
76131;SDS011;64877;50.994;13.650;2024-03-08T02:56:37;32.95;;;17.48;;
76131;SDS011;64877;50.994;13.650;2024-03-08T02:59:02;33.60;;;17.83;;
76131;SDS011;64877;50.994;13.650;2024-03-08T03:01:28;33.70;;;17.25;;
76131;SDS011;64877;50.994;13.650;2024-03-08T03:03:53;35.47;;;17.08;;
76131;SDS011;64877;50.994;13.650;2024-03-08T03:06:19;37.15;;;18.13;;
76131;SDS011;64877;50.994;13.650;2024-03-08T03:08:46;37.83;;;17.67;;
76131;SDS011;64877;50.994;13.650;2024-03-08T03:11:12;34.38;;;17.50;;
76131;SDS011;64877;50.994;13.650;2024-03-08T03:13:39;35.22;;;18.50;;
76131;SDS011;64877;50.994;13.650;2024-03-08T03:16:04;32.38;;;17.90;;
76131;SDS011;64877;50.994;13.650;2024-03-08T03:18:30;32.15;;;17.13;;
76131;SDS011;64877;50.994;13.650;2024-03-08T03:20:58;32.13;;;17.88;;
76131;SDS011;64877;50.994;13.650;2024-03-08T03:23:23;35.75;;;17.73;;
76131;SDS011;64877;50.994;13.650;2024-03-08T03:25:51;30.98;;;16.80;;
76131;SDS011;64877;50.994;13.650;2024-03-08T03:28:17;31.65;;;16.73;;
76131;SDS011;64877;50.994;13.650;2024-03-08T03:30:46;32.47;;;18.00;;
76131;SDS011;64877;50.994;13.650;2024-03-08T03:33:11;35.72;;;17.77;;
76131;SDS011;64877;50.994;13.650;2024-03-08T03:35:37;36.50;;;17.10;;
76131;SDS011;64877;50.994;13.650;2024-03-08T03:38:03;35.15;;;16.67;;
76131;SDS011;64877;50.994;13.650;2024-03-08T03:40:35;34.42;;;17.73;;
76131;SDS011;64877;50.994;13.650;2024-03-08T03:43:05;35.88;;;18.40;;
76131;SDS011;64877;50.994;13.650;2024-03-08T03:45:30;33.13;;;16.95;;
76131;SDS011;64877;50.994;13.650;2024-03-08T03:47:59;37.10;;;18.17;;
76131;SDS011;64877;50.994;13.650;2024-03-08T03:50:26;35.78;;;18.65;;
76131;SDS011;64877;50.994;13.650;2024-03-08T03:52:51;38.20;;;18.35;;
76131;SDS011;64877;50.994;13.650;2024-03-08T03:55:17;33.65;;;17.38;;
76131;SDS011;64877;50.994;13.650;2024-03-08T03:57:43;37.15;;;18.55;;
76131;SDS011;64877;50.994;13.650;2024-03-08T04:00:10;33.38;;;16.42;;
76131;SDS011;64877;50.994;13.650;2024-03-08T04:02:42;38.45;;;19.20;;
76131;SDS011;64877;50.994;13.650;2024-03-08T04:05:08;38.28;;;18.00;;
76131;SDS011;64877;50.994;13.650;2024-03-08T04:07:35;35.20;;;17.52;;
76131;SDS011;64877;50.994;13.650;2024-03-08T04:10:01;36.60;;;18.25;;
76131;SDS011;64877;50.994;13.650;2024-03-08T04:12:27;34.50;;;17.48;;
76131;SDS011;64877;50.994;13.650;2024-03-08T04:14:54;33.53;;;17.02;;
76131;SDS011;64877;50.994;13.650;2024-03-08T04:17:21;38.70;;;18.17;;
76131;SDS011;64877;50.994;13.650;2024-03-08T04:19:47;34.05;;;18.23;;
76131;SDS011;64877;50.994;13.650;2024-03-08T04:22:13;37.75;;;18.85;;
76131;SDS011;64877;50.994;13.650;2024-03-08T04:24:39;32.45;;;17.75;;
76131;SDS011;64877;50.994;13.650;2024-03-08T04:27:06;37.00;;;18.52;;
76131;SDS011;64877;50.994;13.650;2024-03-08T04:29:31;35.42;;;17.52;;
76131;SDS011;64877;50.994;13.650;2024-03-08T04:31:58;38.58;;;17.88;;
76131;SDS011;64877;50.994;13.650;2024-03-08T04:34:23;35.78;;;17.92;;
76131;SDS011;64877;50.994;13.650;2024-03-08T04:36:49;35.53;;;17.98;;
76131;SDS011;64877;50.994;13.650;2024-03-08T04:39:14;40.13;;;17.27;;
76131;SDS011;64877;50.994;13.650;2024-03-08T04:41:41;39.35;;;18.55;;
76131;SDS011;64877;50.994;13.650;2024-03-08T04:44:08;32.80;;;17.20;;
76131;SDS011;64877;50.994;13.650;2024-03-08T04:46:35;43.00;;;20.02;;
76131;SDS011;64877;50.994;13.650;2024-03-08T04:49:01;36.72;;;19.10;;
76131;SDS011;64877;50.994;13.650;2024-03-08T04:51:26;36.47;;;18.10;;
76131;SDS011;64877;50.994;13.650;2024-03-08T04:53:52;32.28;;;17.20;;
76131;SDS011;64877;50.994;13.650;2024-03-08T04:56:17;35.63;;;19.27;;
76131;SDS011;64877;50.994;13.650;2024-03-08T04:58:45;37.33;;;18.48;;
76131;SDS011;64877;50.994;13.650;2024-03-08T05:01:13;34.88;;;19.15;;
76131;SDS011;64877;50.994;13.650;2024-03-08T05:03:38;39.17;;;19.02;;
76131;SDS011;64877;50.994;13.650;2024-03-08T05:06:04;39.85;;;18.63;;
76131;SDS011;64877;50.994;13.650;2024-03-08T05:08:29;49.20;;;20.27;;
76131;SDS011;64877;50.994;13.650;2024-03-08T05:10:55;39.30;;;18.83;;
76131;SDS011;64877;50.994;13.650;2024-03-08T05:13:21;35.17;;;19.00;;
76131;SDS011;64877;50.994;13.650;2024-03-08T05:15:49;38.38;;;19.08;;
76131;SDS011;64877;50.994;13.650;2024-03-08T05:18:18;38.20;;;20.40;;
76131;SDS011;64877;50.994;13.650;2024-03-08T05:20:43;38.35;;;20.25;;
76131;SDS011;64877;50.994;13.650;2024-03-08T05:23:09;39.33;;;19.20;;
76131;SDS011;64877;50.994;13.650;2024-03-08T05:25:34;35.10;;;18.70;;
76131;SDS011;64877;50.994;13.650;2024-03-08T05:27:59;39.80;;;20.05;;
76131;SDS011;64877;50.994;13.650;2024-03-08T05:30:25;39.67;;;18.60;;
76131;SDS011;64877;50.994;13.650;2024-03-08T05:32:50;42.38;;;19.85;;
76131;SDS011;64877;50.994;13.650;2024-03-08T05:35:16;36.00;;;18.17;;
76131;SDS011;64877;50.994;13.650;2024-03-08T05:37:42;41.63;;;19.17;;
76131;SDS011;64877;50.994;13.650;2024-03-08T05:40:08;43.55;;;22.13;;
76131;SDS011;64877;50.994;13.650;2024-03-08T05:42:36;39.17;;;20.10;;
76131;SDS011;64877;50.994;13.650;2024-03-08T05:45:02;38.75;;;19.42;;
76131;SDS011;64877;50.994;13.650;2024-03-08T05:47:29;42.22;;;20.15;;
76131;SDS011;64877;50.994;13.650;2024-03-08T05:49:55;41.63;;;19.38;;
76131;SDS011;64877;50.994;13.650;2024-03-08T05:52:20;39.25;;;18.95;;
76131;SDS011;64877;50.994;13.650;2024-03-08T05:54:46;39.08;;;18.10;;
76131;SDS011;64877;50.994;13.650;2024-03-08T05:57:12;35.17;;;19.20;;
76131;SDS011;64877;50.994;13.650;2024-03-08T05:59:39;40.53;;;19.60;;
76131;SDS011;64877;50.994;13.650;2024-03-08T06:02:05;42.47;;;19.73;;
76131;SDS011;64877;50.994;13.650;2024-03-08T06:04:31;40.92;;;19.50;;
76131;SDS011;64877;50.994;13.650;2024-03-08T06:06:57;37.75;;;19.73;;
76131;SDS011;64877;50.994;13.650;2024-03-08T06:09:24;39.03;;;19.20;;
76131;SDS011;64877;50.994;13.650;2024-03-08T06:11:52;39.85;;;18.45;;
76131;SDS011;64877;50.994;13.650;2024-03-08T06:14:19;39.28;;;19.20;;
76131;SDS011;64877;50.994;13.650;2024-03-08T06:16:45;36.85;;;17.50;;
76131;SDS011;64877;50.994;13.650;2024-03-08T06:19:12;40.53;;;19.08;;
76131;SDS011;64877;50.994;13.650;2024-03-08T06:21:38;38.28;;;18.30;;
76131;SDS011;64877;50.994;13.650;2024-03-08T06:24:04;40.65;;;18.67;;
76131;SDS011;64877;50.994;13.650;2024-03-08T06:26:30;33.85;;;17.30;;
76131;SDS011;64877;50.994;13.650;2024-03-08T06:28:56;34.05;;;17.58;;
76131;SDS011;64877;50.994;13.650;2024-03-08T06:31:22;37.83;;;17.80;;
76131;SDS011;64877;50.994;13.650;2024-03-08T06:33:48;30.92;;;16.98;;
76131;SDS011;64877;50.994;13.650;2024-03-08T06:36:18;32.65;;;17.15;;
76131;SDS011;64877;50.994;13.650;2024-03-08T06:38:47;34.53;;;18.00;;
76131;SDS011;64877;50.994;13.650;2024-03-08T06:41:14;36.05;;;18.50;;
76131;SDS011;64877;50.994;13.650;2024-03-08T06:43:41;36.55;;;18.98;;
76131;SDS011;64877;50.994;13.650;2024-03-08T06:46:07;40.58;;;20.02;;
76131;SDS011;64877;50.994;13.650;2024-03-08T06:48:34;38.20;;;18.48;;
76131;SDS011;64877;50.994;13.650;2024-03-08T06:51:00;36.70;;;20.23;;
76131;SDS011;64877;50.994;13.650;2024-03-08T06:53:26;31.67;;;17.88;;
76131;SDS011;64877;50.994;13.650;2024-03-08T06:55:51;39.53;;;18.92;;
76131;SDS011;64877;50.994;13.650;2024-03-08T06:58:17;32.63;;;19.42;;
76131;SDS011;64877;50.994;13.650;2024-03-08T07:00:43;33.20;;;18.60;;
76131;SDS011;64877;50.994;13.650;2024-03-08T07:03:09;28.55;;;17.30;;
76131;SDS011;64877;50.994;13.650;2024-03-08T07:05:38;36.72;;;19.45;;
76131;SDS011;64877;50.994;13.650;2024-03-08T07:08:05;36.28;;;19.30;;
76131;SDS011;64877;50.994;13.650;2024-03-08T07:10:31;33.03;;;18.08;;
76131;SDS011;64877;50.994;13.650;2024-03-08T07:12:57;29.88;;;17.02;;
76131;SDS011;64877;50.994;13.650;2024-03-08T07:15:28;33.60;;;18.58;;
76131;SDS011;64877;50.994;13.650;2024-03-08T07:17:54;31.08;;;17.25;;
76131;SDS011;64877;50.994;13.650;2024-03-08T07:20:20;30.55;;;17.85;;
76131;SDS011;64877;50.994;13.650;2024-03-08T07:22:47;32.08;;;18.25;;
76131;SDS011;64877;50.994;13.650;2024-03-08T07:25:16;33.13;;;19.10;;
76131;SDS011;64877;50.994;13.650;2024-03-08T07:27:55;31.92;;;18.77;;
76131;SDS011;64877;50.994;13.650;2024-03-08T07:33:09;30.70;;;17.83;;
76131;SDS011;64877;50.994;13.650;2024-03-08T07:35:38;26.65;;;16.80;;
76131;SDS011;64877;50.994;13.650;2024-03-08T07:38:06;29.60;;;18.58;;
76131;SDS011;64877;50.994;13.650;2024-03-08T07:40:41;27.67;;;17.17;;
76131;SDS011;64877;50.994;13.650;2024-03-08T07:43:10;28.92;;;18.05;;
76131;SDS011;64877;50.994;13.650;2024-03-08T07:45:36;31.25;;;17.92;;
76131;SDS011;64877;50.994;13.650;2024-03-08T07:48:03;28.80;;;18.70;;
76131;SDS011;64877;50.994;13.650;2024-03-08T07:50:37;28.88;;;17.77;;
76131;SDS011;64877;50.994;13.650;2024-03-08T07:53:04;30.02;;;18.55;;
76131;SDS011;64877;50.994;13.650;2024-03-08T07:55:33;27.20;;;17.77;;
76131;SDS011;64877;50.994;13.650;2024-03-08T07:58:00;26.15;;;17.17;;
76131;SDS011;64877;50.994;13.650;2024-03-08T08:00:26;30.42;;;17.58;;
76131;SDS011;64877;50.994;13.650;2024-03-08T08:02:53;26.45;;;18.25;;
76131;SDS011;64877;50.994;13.650;2024-03-08T08:05:19;27.00;;;17.90;;
76131;SDS011;64877;50.994;13.650;2024-03-08T08:07:45;25.83;;;17.70;;
76131;SDS011;64877;50.994;13.650;2024-03-08T08:10:12;25.45;;;17.48;;
76131;SDS011;64877;50.994;13.650;2024-03-08T08:12:50;26.98;;;17.75;;
76131;SDS011;64877;50.994;13.650;2024-03-08T08:15:16;25.80;;;17.45;;
76131;SDS011;64877;50.994;13.650;2024-03-08T08:17:45;25.90;;;17.67;;
76131;SDS011;64877;50.994;13.650;2024-03-08T08:20:12;24.17;;;17.10;;
76131;SDS011;64877;50.994;13.650;2024-03-08T08:22:41;24.85;;;17.08;;
76131;SDS011;64877;50.994;13.650;2024-03-08T08:25:10;21.70;;;14.73;;
76131;SDS011;64877;50.994;13.650;2024-03-08T08:27:38;31.73;;;16.52;;
76131;SDS011;64877;50.994;13.650;2024-03-08T08:30:10;27.33;;;16.02;;
76131;SDS011;64877;50.994;13.650;2024-03-08T08:32:37;22.05;;;14.80;;
76131;SDS011;64877;50.994;13.650;2024-03-08T08:37:30;24.35;;;15.40;;
76131;SDS011;64877;50.994;13.650;2024-03-08T08:39:57;25.98;;;15.90;;
76131;SDS011;64877;50.994;13.650;2024-03-08T08:42:23;22.75;;;15.40;;
76131;SDS011;64877;50.994;13.650;2024-03-08T08:44:48;27.00;;;16.95;;
76131;SDS011;64877;50.994;13.650;2024-03-08T08:47:15;27.75;;;16.65;;
76131;SDS011;64877;50.994;13.650;2024-03-08T08:49:44;31.48;;;16.90;;
76131;SDS011;64877;50.994;13.650;2024-03-08T08:52:11;27.88;;;16.33;;
76131;SDS011;64877;50.994;13.650;2024-03-08T08:54:36;27.92;;;15.88;;
76131;SDS011;64877;50.994;13.650;2024-03-08T08:57:02;24.75;;;14.68;;
76131;SDS011;64877;50.994;13.650;2024-03-08T08:59:36;26.10;;;15.25;;
76131;SDS011;64877;50.994;13.650;2024-03-08T09:02:04;28.42;;;15.57;;
76131;SDS011;64877;50.994;13.650;2024-03-08T09:04:34;25.35;;;15.65;;
76131;SDS011;64877;50.994;13.650;2024-03-08T09:07:00;22.80;;;13.85;;
76131;SDS011;64877;50.994;13.650;2024-03-08T09:09:26;24.38;;;15.57;;
76131;SDS011;64877;50.994;13.650;2024-03-08T09:11:52;22.55;;;14.55;;
76131;SDS011;64877;50.994;13.650;2024-03-08T09:14:19;24.65;;;13.68;;
76131;SDS011;64877;50.994;13.650;2024-03-08T09:16:45;25.05;;;14.45;;
76131;SDS011;64877;50.994;13.650;2024-03-08T09:19:12;23.33;;;13.77;;
76131;SDS011;64877;50.994;13.650;2024-03-08T09:21:38;24.83;;;15.40;;
76131;SDS011;64877;50.994;13.650;2024-03-08T09:24:05;24.67;;;15.25;;
76131;SDS011;64877;50.994;13.650;2024-03-08T09:26:31;22.45;;;14.68;;
76131;SDS011;64877;50.994;13.650;2024-03-08T09:28:58;20.33;;;14.15;;
76131;SDS011;64877;50.994;13.650;2024-03-08T09:31:24;22.15;;;14.00;;
76131;SDS011;64877;50.994;13.650;2024-03-08T09:33:51;23.80;;;15.73;;
76131;SDS011;64877;50.994;13.650;2024-03-08T09:36:16;22.67;;;15.05;;
76131;SDS011;64877;50.994;13.650;2024-03-08T09:38:42;23.58;;;15.00;;
76131;SDS011;64877;50.994;13.650;2024-03-08T09:41:08;22.88;;;15.70;;
76131;SDS011;64877;50.994;13.650;2024-03-08T09:43:35;27.80;;;16.45;;
76131;SDS011;64877;50.994;13.650;2024-03-08T09:46:01;27.58;;;14.88;;
76131;SDS011;64877;50.994;13.650;2024-03-08T09:48:28;25.92;;;15.20;;
76131;SDS011;64877;50.994;13.650;2024-03-08T09:50:54;25.75;;;14.15;;
76131;SDS011;64877;50.994;13.650;2024-03-08T09:53:21;24.10;;;14.68;;
76131;SDS011;64877;50.994;13.650;2024-03-08T09:55:47;24.90;;;13.93;;
76131;SDS011;64877;50.994;13.650;2024-03-08T09:58:14;26.65;;;15.18;;
76131;SDS011;64877;50.994;13.650;2024-03-08T10:00:42;28.83;;;13.95;;
76131;SDS011;64877;50.994;13.650;2024-03-08T10:03:08;27.83;;;15.43;;
76131;SDS011;64877;50.994;13.650;2024-03-08T10:05:34;26.30;;;14.60;;
76131;SDS011;64877;50.994;13.650;2024-03-08T10:07:59;27.33;;;15.52;;
76131;SDS011;64877;50.994;13.650;2024-03-08T10:10:25;26.52;;;14.48;;
76131;SDS011;64877;50.994;13.650;2024-03-08T10:12:51;25.52;;;14.13;;
76131;SDS011;64877;50.994;13.650;2024-03-08T10:15:17;27.42;;;13.88;;
76131;SDS011;64877;50.994;13.650;2024-03-08T10:17:42;24.38;;;14.15;;
76131;SDS011;64877;50.994;13.650;2024-03-08T10:20:18;27.42;;;14.05;;
76131;SDS011;64877;50.994;13.650;2024-03-08T10:22:44;28.05;;;15.43;;
76131;SDS011;64877;50.994;13.650;2024-03-08T10:25:10;26.42;;;14.68;;
76131;SDS011;64877;50.994;13.650;2024-03-08T10:27:37;24.70;;;14.02;;
76131;SDS011;64877;50.994;13.650;2024-03-08T10:30:15;30.88;;;15.10;;
76131;SDS011;64877;50.994;13.650;2024-03-08T10:32:45;30.65;;;15.02;;
76131;SDS011;64877;50.994;13.650;2024-03-08T10:35:13;27.13;;;15.25;;
76131;SDS011;64877;50.994;13.650;2024-03-08T10:37:49;27.02;;;13.80;;
76131;SDS011;64877;50.994;13.650;2024-03-08T10:40:23;24.75;;;13.68;;
76131;SDS011;64877;50.994;13.650;2024-03-08T10:45:35;25.58;;;13.23;;
76131;SDS011;64877;50.994;13.650;2024-03-08T10:50:42;23.17;;;13.07;;
76131;SDS011;64877;50.994;13.650;2024-03-08T10:53:11;19.13;;;12.02;;
76131;SDS011;64877;50.994;13.650;2024-03-08T10:55:39;27.40;;;13.40;;
76131;SDS011;64877;50.994;13.650;2024-03-08T10:58:06;24.85;;;13.30;;
76131;SDS011;64877;50.994;13.650;2024-03-08T11:00:33;22.30;;;12.95;;
76131;SDS011;64877;50.994;13.650;2024-03-08T11:03:00;29.27;;;13.60;;
76131;SDS011;64877;50.994;13.650;2024-03-08T11:05:41;23.65;;;13.30;;
76131;SDS011;64877;50.994;13.650;2024-03-08T11:08:16;21.17;;;12.95;;
76131;SDS011;64877;50.994;13.650;2024-03-08T11:10:46;24.38;;;12.38;;
76131;SDS011;64877;50.994;13.650;2024-03-08T11:13:36;23.77;;;12.82;;
76131;SDS011;64877;50.994;13.650;2024-03-08T11:16:09;25.23;;;13.20;;
76131;SDS011;64877;50.994;13.650;2024-03-08T11:18:36;27.42;;;12.80;;
76131;SDS011;64877;50.994;13.650;2024-03-08T11:21:06;22.50;;;12.60;;
76131;SDS011;64877;50.994;13.650;2024-03-08T11:23:37;24.65;;;14.32;;
76131;SDS011;64877;50.994;13.650;2024-03-08T11:28:50;24.75;;;13.13;;
76131;SDS011;64877;50.994;13.650;2024-03-08T11:33:46;24.53;;;13.07;;
76131;SDS011;64877;50.994;13.650;2024-03-08T11:36:13;27.17;;;13.63;;
76131;SDS011;64877;50.994;13.650;2024-03-08T11:38:47;25.85;;;13.88;;
76131;SDS011;64877;50.994;13.650;2024-03-08T11:41:21;25.13;;;15.07;;
76131;SDS011;64877;50.994;13.650;2024-03-08T11:43:49;22.88;;;12.70;;
76131;SDS011;64877;50.994;13.650;2024-03-08T11:46:26;24.88;;;14.05;;
76131;SDS011;64877;50.994;13.650;2024-03-08T11:48:54;24.52;;;14.05;;
76131;SDS011;64877;50.994;13.650;2024-03-08T11:51:20;24.17;;;13.65;;
76131;SDS011;64877;50.994;13.650;2024-03-08T11:53:46;25.13;;;14.02;;
76131;SDS011;64877;50.994;13.650;2024-03-08T11:56:15;23.08;;;12.10;;
76131;SDS011;64877;50.994;13.650;2024-03-08T11:58:41;26.55;;;13.55;;
76131;SDS011;64877;50.994;13.650;2024-03-08T12:01:17;22.42;;;12.20;;
76131;SDS011;64877;50.994;13.650;2024-03-08T12:03:43;19.55;;;12.43;;
76131;SDS011;64877;50.994;13.650;2024-03-08T12:06:10;37.67;;;14.43;;
76131;SDS011;64877;50.994;13.650;2024-03-08T12:11:03;20.52;;;10.52;;
76131;SDS011;64877;50.994;13.650;2024-03-08T12:13:30;21.90;;;12.45;;
76131;SDS011;64877;50.994;13.650;2024-03-08T12:15:57;21.55;;;12.70;;
76131;SDS011;64877;50.994;13.650;2024-03-08T12:18:29;22.92;;;12.13;;
76131;SDS011;64877;50.994;13.650;2024-03-08T12:21:06;22.85;;;12.40;;
76131;SDS011;64877;50.994;13.650;2024-03-08T12:24:01;20.55;;;11.57;;
76131;SDS011;64877;50.994;13.650;2024-03-08T12:26:28;19.52;;;11.95;;
76131;SDS011;64877;50.994;13.650;2024-03-08T12:28:53;21.13;;;11.70;;
76131;SDS011;64877;50.994;13.650;2024-03-08T12:31:19;19.77;;;11.02;;
76131;SDS011;64877;50.994;13.650;2024-03-08T12:36:14;20.55;;;11.32;;
76131;SDS011;64877;50.994;13.650;2024-03-08T12:38:44;22.17;;;11.50;;
76131;SDS011;64877;50.994;13.650;2024-03-08T12:41:16;19.45;;;10.90;;
76131;SDS011;64877;50.994;13.650;2024-03-08T12:43:43;16.45;;;10.32;;
76131;SDS011;64877;50.994;13.650;2024-03-08T12:46:17;18.73;;;11.25;;
76131;SDS011;64877;50.994;13.650;2024-03-08T12:48:45;23.17;;;11.35;;
76131;SDS011;64877;50.994;13.650;2024-03-08T12:51:17;23.42;;;10.80;;
76131;SDS011;64877;50.994;13.650;2024-03-08T12:53:45;22.63;;;11.18;;
76131;SDS011;64877;50.994;13.650;2024-03-08T12:56:12;21.10;;;10.02;;
76131;SDS011;64877;50.994;13.650;2024-03-08T12:58:39;18.50;;;10.32;;
76131;SDS011;64877;50.994;13.650;2024-03-08T13:01:05;16.90;;;9.55;;
76131;SDS011;64877;50.994;13.650;2024-03-08T13:03:34;18.15;;;10.25;;
76131;SDS011;64877;50.994;13.650;2024-03-08T13:06:06;18.45;;;10.32;;
76131;SDS011;64877;50.994;13.650;2024-03-08T13:08:37;16.42;;;10.10;;
76131;SDS011;64877;50.994;13.650;2024-03-08T13:11:06;17.25;;;9.40;;
76131;SDS011;64877;50.994;13.650;2024-03-08T13:13:32;19.30;;;10.10;;
76131;SDS011;64877;50.994;13.650;2024-03-08T13:16:02;19.05;;;9.50;;
76131;SDS011;64877;50.994;13.650;2024-03-08T13:18:28;18.15;;;10.25;;
76131;SDS011;64877;50.994;13.650;2024-03-08T13:20:54;18.27;;;9.75;;
76131;SDS011;64877;50.994;13.650;2024-03-08T13:23:20;16.10;;;9.48;;
76131;SDS011;64877;50.994;13.650;2024-03-08T13:25:45;15.93;;;9.15;;
76131;SDS011;64877;50.994;13.650;2024-03-08T13:28:13;17.45;;;9.15;;
76131;SDS011;64877;50.994;13.650;2024-03-08T13:30:38;16.23;;;10.07;;
76131;SDS011;64877;50.994;13.650;2024-03-08T13:33:04;17.02;;;9.77;;
76131;SDS011;64877;50.994;13.650;2024-03-08T13:35:30;15.43;;;9.63;;
76131;SDS011;64877;50.994;13.650;2024-03-08T13:37:56;14.68;;;8.73;;
76131;SDS011;64877;50.994;13.650;2024-03-08T13:40:21;16.42;;;9.60;;
76131;SDS011;64877;50.994;13.650;2024-03-08T13:42:50;18.83;;;8.50;;
76131;SDS011;64877;50.994;13.650;2024-03-08T13:45:15;14.38;;;8.45;;
76131;SDS011;64877;50.994;13.650;2024-03-08T13:47:47;15.82;;;8.88;;
76131;SDS011;64877;50.994;13.650;2024-03-08T13:50:14;15.70;;;8.68;;
76131;SDS011;64877;50.994;13.650;2024-03-08T13:52:46;16.40;;;9.10;;
76131;SDS011;64877;50.994;13.650;2024-03-08T13:55:14;14.55;;;8.80;;
76131;SDS011;64877;50.994;13.650;2024-03-08T13:57:40;13.85;;;8.57;;
76131;SDS011;64877;50.994;13.650;2024-03-08T14:00:05;12.55;;;7.38;;
76131;SDS011;64877;50.994;13.650;2024-03-08T14:02:38;15.38;;;8.05;;
76131;SDS011;64877;50.994;13.650;2024-03-08T14:05:06;15.35;;;8.40;;
76131;SDS011;64877;50.994;13.650;2024-03-08T14:07:34;13.77;;;6.82;;
76131;SDS011;64877;50.994;13.650;2024-03-08T14:10:00;12.50;;;7.00;;
76131;SDS011;64877;50.994;13.650;2024-03-08T14:12:25;12.23;;;7.20;;
76131;SDS011;64877;50.994;13.650;2024-03-08T14:14:52;13.82;;;7.43;;
76131;SDS011;64877;50.994;13.650;2024-03-08T14:17:20;16.23;;;8.13;;
76131;SDS011;64877;50.994;13.650;2024-03-08T14:19:46;11.63;;;7.18;;
76131;SDS011;64877;50.994;13.650;2024-03-08T14:22:11;14.07;;;6.90;;
76131;SDS011;64877;50.994;13.650;2024-03-08T14:24:40;12.23;;;7.53;;
76131;SDS011;64877;50.994;13.650;2024-03-08T14:27:07;12.68;;;7.47;;
76131;SDS011;64877;50.994;13.650;2024-03-08T14:29:34;13.82;;;6.80;;
76131;SDS011;64877;50.994;13.650;2024-03-08T14:32:00;10.52;;;6.60;;